createdAt,value
2019-03-25T00:01:02.814Z,41.82
2019-03-25T00:03:32.656Z,41.75
2019-03-25T00:06:02.377Z,41.86
2019-03-25T00:08:33.278Z,41.91
2019-03-25T00:11:04.133Z,41.71
2019-03-25T00:13:35.053Z,41.84
2019-03-25T00:16:05.910Z,41.97
2019-03-25T00:18:36.671Z,41.93
2019-03-25T00:21:07.499Z,41.94
2019-03-25T00:23:38.314Z,41.90
2019-03-25T00:26:09.186Z,41.83
2019-03-25T00:28:40.016Z,41.92
2019-03-25T00:31:10.803Z,41.85
2019-03-25T00:33:41.629Z,41.88
2019-03-25T00:36:14.480Z,41.77
2019-03-25T00:38:45.278Z,41.85
2019-03-25T00:41:16.099Z,41.88
2019-03-25T00:43:47.054Z,41.87
2019-03-25T00:46:18.086Z,41.81
2019-03-25T00:48:49.129Z,41.90
2019-03-25T00:51:20.005Z,41.86
2019-03-25T00:53:50.823Z,42.05
2019-03-25T00:56:21.725Z,41.98
2019-03-25T00:58:52.589Z,42.04
2019-03-25T01:01:23.758Z,42.11
2019-03-25T01:03:54.626Z,42.27
2019-03-25T01:06:25.458Z,42.31
2019-03-25T01:08:56.327Z,42.28
2019-03-25T01:11:28.237Z,42.43
2019-03-25T01:13:59.137Z,42.13
2019-03-25T01:16:30.043Z,42.27
2019-03-25T01:19:00.998Z,42.14
2019-03-25T01:21:31.815Z,42.11
2019-03-25T01:24:02.620Z,42.25
2019-03-25T01:26:34.384Z,42.23
2019-03-25T01:29:05.228Z,42.39
2019-03-25T01:31:36.052Z,42.19
2019-03-25T01:34:06.861Z,42.35
2019-03-25T01:36:37.650Z,42.24
2019-03-25T01:39:08.540Z,42.16
2019-03-25T01:41:39.364Z,42.16
2019-03-25T01:44:10.174Z,42.14
2019-03-25T01:46:40.961Z,42.14
2019-03-25T01:49:11.871Z,42.22
2019-03-25T01:51:42.646Z,42.30
2019-03-25T01:54:13.449Z,42.12
2019-03-25T01:56:44.382Z,42.17
2019-03-25T01:59:15.246Z,42.08
2019-03-25T02:01:46.093Z,42.13
2019-03-25T02:04:16.932Z,42.01
2019-03-25T02:06:47.688Z,42.00
2019-03-25T02:09:18.495Z,42.06
2019-03-25T02:11:49.415Z,42.17
2019-03-25T02:14:20.319Z,42.14
2019-03-25T02:16:51.137Z,42.06
2019-03-25T02:19:21.964Z,42.10
2019-03-25T02:21:52.909Z,42.09
2019-03-25T02:24:24.744Z,41.94
2019-03-25T02:26:55.548Z,41.74
2019-03-25T02:29:26.359Z,41.72
2019-03-25T02:31:57.881Z,41.83
2019-03-25T02:34:28.666Z,41.67
2019-03-25T02:36:59.663Z,41.92
2019-03-25T02:39:30.469Z,41.58
2019-03-25T02:42:01.355Z,41.67
2019-03-25T02:44:32.285Z,41.63
2019-03-25T02:47:04.140Z,41.65
2019-03-25T02:49:36.049Z,41.87
2019-03-25T02:52:06.835Z,41.89
2019-03-25T02:54:37.637Z,41.91
2019-03-25T02:57:08.384Z,41.98
2019-03-25T02:59:39.198Z,42.05
2019-03-25T03:02:10.074Z,42.08
2019-03-25T03:04:40.932Z,42.09
2019-03-25T03:07:11.875Z,41.95
2019-03-25T03:09:42.722Z,41.98
2019-03-25T03:12:13.739Z,41.99
2019-03-25T03:14:44.601Z,42.21
2019-03-25T03:17:16.546Z,41.96
2019-03-25T03:19:47.411Z,42.20
2019-03-25T03:22:18.244Z,42.16
2019-03-25T03:24:49.016Z,42.16
2019-03-25T03:27:19.870Z,42.19
2019-03-25T03:29:50.770Z,42.37
2019-03-25T03:32:21.653Z,42.27
2019-03-25T03:34:52.582Z,42.26
2019-03-25T03:37:24.426Z,42.26
2019-03-25T03:39:55.241Z,42.15
2019-03-25T03:42:26.089Z,42.28
2019-03-25T03:44:56.873Z,42.28
2019-03-25T03:47:27.733Z,41.96
2019-03-25T03:49:58.544Z,41.92
2019-03-25T03:52:29.341Z,41.30
2019-03-25T03:55:00.320Z,41.30
2019-03-25T03:57:31.396Z,40.85
2019-03-25T04:00:02.293Z,41.16
2019-03-25T04:02:33.372Z,40.79
2019-03-25T04:05:04.223Z,40.01
2019-03-25T04:07:35.101Z,40.40
2019-03-25T04:10:06.231Z,40.46
2019-03-25T04:12:37.012Z,40.36
2019-03-25T04:15:07.879Z,40.47
2019-03-25T04:17:38.645Z,40.77
2019-03-25T04:20:09.608Z,40.89
2019-03-25T04:22:40.366Z,40.97
2019-03-25T04:25:11.202Z,41.02
2019-03-25T04:27:42.014Z,41.05
2019-03-25T04:30:12.816Z,41.08
2019-03-25T04:32:44.623Z,41.13
2019-03-25T04:35:15.465Z,41.30
2019-03-25T04:37:46.289Z,41.20
2019-03-25T04:40:17.161Z,41.31
2019-03-25T04:42:47.948Z,41.41
2019-03-25T04:45:18.775Z,41.43
2019-03-25T04:47:49.613Z,41.53
2019-03-25T04:50:20.419Z,41.51
2019-03-25T04:52:51.249Z,41.60
2019-03-25T04:55:22.127Z,41.63
2019-03-25T04:57:53.046Z,41.70
2019-03-25T05:00:35.033Z,41.65
2019-03-25T05:03:05.847Z,41.60
2019-03-25T05:05:36.857Z,41.60
2019-03-25T05:08:07.688Z,41.63
2019-03-25T05:10:38.538Z,41.59
2019-03-25T05:13:09.344Z,41.60
2019-03-25T05:15:40.167Z,41.65
2019-03-25T05:18:11.005Z,41.63
2019-03-25T05:20:41.833Z,41.66
2019-03-25T05:23:12.604Z,41.62
2019-03-25T05:25:43.427Z,41.58
2019-03-25T05:28:14.233Z,41.57
2019-03-25T05:30:45.094Z,41.51
2019-03-25T05:33:16.427Z,41.54
2019-03-25T05:35:47.277Z,41.52
2019-03-25T05:38:18.081Z,41.45
2019-03-25T05:40:49.333Z,41.43
2019-03-25T05:43:21.283Z,41.47
2019-03-25T05:45:52.309Z,41.43
2019-03-25T05:48:24.151Z,41.39
2019-03-25T05:50:54.975Z,41.41
2019-03-25T05:53:25.835Z,41.43
2019-03-25T05:55:56.647Z,41.41
2019-03-25T05:58:27.498Z,41.30
2019-03-25T06:00:58.295Z,41.31
2019-03-25T06:03:29.127Z,41.30
2019-03-25T06:06:00.324Z,41.27
2019-03-25T06:08:33.403Z,41.21
2019-03-25T06:11:04.281Z,41.17
2019-03-25T06:13:35.130Z,41.25
2019-03-25T06:16:05.917Z,41.25
2019-03-25T06:18:36.761Z,41.15
2019-03-25T06:21:07.541Z,41.13
2019-03-25T06:23:38.606Z,41.20
2019-03-25T06:26:09.452Z,41.14
2019-03-25T06:28:40.342Z,41.13
2019-03-25T06:31:11.127Z,41.10
2019-03-25T06:33:41.946Z,41.08
2019-03-25T06:36:12.867Z,41.10
2019-03-25T06:38:43.629Z,41.08
2019-03-25T06:41:14.486Z,41.00
2019-03-25T06:43:45.305Z,41.08
2019-03-25T06:46:16.199Z,41.01
2019-03-25T06:48:46.998Z,40.66
2019-03-25T06:51:17.898Z,40.45
2019-03-25T06:53:53.604Z,40.58
2019-03-25T06:56:26.523Z,40.72
2019-03-25T06:58:57.410Z,40.60
2019-03-25T07:01:28.386Z,35.81
2019-03-25T07:03:59.480Z,35.40
2019-03-25T07:06:30.692Z,36.12
2019-03-25T07:09:01.746Z,35.98
2019-03-25T07:11:33.938Z,36.54
2019-03-25T07:14:04.987Z,37.19
2019-03-25T07:16:36.154Z,36.31
2019-03-25T07:19:07.218Z,35.93
2019-03-25T07:21:38.294Z,35.72
2019-03-25T07:24:09.413Z,35.91
2019-03-25T07:26:40.598Z,36.28
2019-03-25T07:29:11.635Z,36.37
2019-03-25T07:31:42.614Z,36.42
2019-03-25T07:34:13.654Z,36.05
2019-03-25T07:36:44.641Z,36.06
2019-03-25T07:39:15.670Z,36.17
2019-03-25T07:41:46.674Z,36.16
2019-03-25T07:44:17.669Z,36.23
2019-03-25T07:46:48.647Z,36.27
2019-03-25T07:49:19.682Z,36.12
2019-03-25T07:51:50.646Z,36.15
2019-03-25T07:54:21.827Z,36.31
2019-03-25T07:56:52.946Z,36.48
2019-03-25T07:59:24.037Z,36.57
2019-03-25T08:01:55.099Z,36.82
2019-03-25T08:04:26.216Z,36.96
2019-03-25T08:06:57.386Z,37.30
2019-03-25T08:09:28.458Z,37.37
2019-03-25T08:11:59.561Z,37.60
2019-03-25T08:14:30.631Z,37.62
2019-03-25T08:17:02.159Z,37.66
2019-03-25T08:19:34.287Z,37.71
2019-03-25T08:22:06.795Z,37.83
2019-03-25T08:24:37.831Z,37.87
2019-03-25T08:27:08.938Z,37.98
2019-03-25T08:29:39.997Z,38.19
2019-03-25T08:32:08.871Z,38.33
2019-03-25T08:34:37.788Z,38.30
2019-03-25T08:37:08.888Z,38.31
2019-03-25T08:39:40.000Z,38.37
2019-03-25T08:42:11.175Z,38.49
2019-03-25T08:44:42.551Z,38.44
2019-03-25T08:47:13.692Z,38.37
2019-03-25T08:49:45.785Z,38.55
2019-03-25T08:52:16.884Z,38.60
2019-03-25T08:54:47.916Z,38.66
2019-03-25T08:57:19.078Z,38.80
2019-03-25T08:59:50.103Z,38.83
2019-03-25T09:02:21.186Z,38.92
2019-03-25T09:04:52.239Z,39.12
2019-03-25T09:07:23.276Z,38.96
2019-03-25T09:09:54.326Z,39.02
2019-03-25T09:12:25.328Z,39.13
2019-03-25T09:14:57.155Z,39.30
2019-03-25T09:17:28.163Z,39.28
2019-03-25T09:19:59.252Z,39.46
2019-03-25T09:22:30.373Z,39.54
2019-03-25T09:25:01.769Z,39.55
2019-03-25T09:27:32.895Z,39.65
2019-03-25T09:30:04.502Z,39.58
2019-03-25T09:32:35.878Z,39.65
2019-03-25T09:35:07.479Z,39.63
2019-03-25T09:37:38.918Z,39.55
2019-03-25T09:40:10.506Z,39.75
2019-03-25T09:42:41.511Z,39.83
2019-03-25T09:45:12.637Z,39.80
2019-03-25T09:47:43.697Z,39.71
2019-03-25T09:50:14.806Z,39.67
2019-03-25T09:52:45.904Z,39.54
2019-03-25T09:55:17.017Z,39.52
2019-03-25T09:57:48.037Z,39.72
2019-03-25T10:00:22.881Z,39.85
2019-03-25T10:02:53.960Z,39.81
2019-03-25T10:05:25.371Z,39.74
2019-03-25T10:07:56.465Z,39.70
2019-03-25T10:10:27.567Z,39.65
2019-03-25T10:12:58.800Z,39.68
2019-03-25T10:15:29.967Z,39.63
2019-03-25T10:18:01.068Z,39.75
2019-03-25T10:20:34.513Z,39.75
2019-03-25T10:23:05.591Z,39.76
2019-03-25T10:25:36.664Z,39.83
2019-03-25T10:28:08.923Z,39.74
2019-03-25T10:30:39.957Z,39.75
2019-03-25T10:33:12.152Z,39.70
2019-03-25T10:35:43.231Z,39.62
2019-03-25T10:38:19.573Z,39.62
2019-03-25T10:40:47.153Z,39.67
2019-03-25T10:43:18.324Z,39.81
2019-03-25T10:45:50.232Z,39.83
2019-03-25T10:48:21.710Z,39.84
2019-03-25T10:50:52.763Z,40.01
2019-03-25T10:53:24.219Z,39.85
2019-03-25T10:55:55.320Z,39.96
2019-03-25T10:58:26.495Z,39.83
2019-03-25T11:00:57.609Z,39.78
2019-03-25T11:03:28.736Z,39.88
2019-03-25T11:05:59.777Z,40.21
2019-03-25T11:08:30.868Z,40.50
2019-03-25T11:11:01.910Z,40.68
2019-03-25T11:13:32.943Z,40.77
2019-03-25T11:16:04.401Z,40.80
2019-03-25T11:18:35.472Z,40.80
2019-03-25T11:21:06.582Z,40.82
2019-03-25T11:23:37.660Z,40.86
2019-03-25T11:26:08.772Z,40.87
2019-03-25T11:28:39.848Z,40.89
2019-03-25T11:31:11.195Z,40.87
2019-03-25T11:33:42.294Z,40.90
2019-03-25T11:36:13.448Z,40.93
2019-03-25T11:38:44.653Z,40.98
2019-03-25T11:41:16.301Z,40.96
2019-03-25T11:43:47.355Z,40.96
2019-03-25T11:46:18.502Z,41.04
2019-03-25T11:48:49.768Z,41.17
2019-03-25T11:51:20.896Z,41.45
2019-03-25T11:53:51.989Z,41.33
2019-03-25T11:56:24.148Z,41.15
2019-03-25T11:58:55.320Z,41.07
2019-03-25T12:01:26.363Z,40.88
2019-03-25T12:03:57.417Z,40.55
2019-03-25T12:06:28.504Z,40.34
2019-03-25T12:08:59.530Z,40.49
2019-03-25T12:11:30.638Z,40.03
2019-03-25T12:14:01.669Z,40.21
2019-03-25T12:16:32.823Z,40.43
2019-03-25T12:19:04.445Z,40.53
2019-03-25T12:21:35.456Z,40.41
2019-03-25T12:24:06.530Z,40.40
2019-03-25T12:26:37.615Z,40.39
2019-03-25T12:29:08.682Z,40.36
2019-03-25T12:31:40.769Z,40.25
2019-03-25T12:34:11.929Z,40.56
2019-03-25T12:36:42.900Z,40.45
2019-03-25T12:39:14.000Z,40.84
2019-03-25T12:41:45.050Z,41.23
2019-03-25T12:44:16.200Z,41.13
2019-03-25T12:46:47.334Z,41.44
2019-03-25T12:49:18.363Z,41.43
2019-03-25T12:51:49.532Z,41.53
2019-03-25T12:54:20.644Z,41.31
2019-03-25T12:56:51.694Z,41.31
2019-03-25T12:59:22.742Z,41.21
2019-03-25T13:01:53.890Z,41.28
2019-03-25T13:04:24.950Z,41.15
2019-03-25T13:06:55.980Z,41.57
2019-03-25T13:09:27.097Z,41.72
2019-03-25T13:11:58.543Z,41.95
2019-03-25T13:14:30.167Z,42.32
2019-03-25T13:17:04.434Z,42.85
2019-03-25T13:19:36.051Z,43.01
2019-03-25T13:22:07.193Z,43.22
2019-03-25T13:24:38.254Z,43.27
2019-03-25T13:27:09.491Z,43.34
2019-03-25T13:29:51.771Z,43.47
2019-03-25T13:32:13.257Z,43.28
2019-03-25T13:34:44.331Z,41.96
2019-03-25T13:37:16.522Z,41.89
2019-03-25T13:39:47.580Z,42.24
2019-03-25T13:42:18.778Z,42.35
2019-03-25T13:44:49.883Z,42.49
2019-03-25T13:47:20.973Z,42.52
2019-03-25T13:49:52.013Z,42.24
2019-03-25T13:52:23.103Z,42.25
2019-03-25T13:54:54.195Z,42.47
2019-03-25T13:57:25.292Z,42.29
2019-03-25T14:00:03.311Z,42.43
2019-03-25T14:02:29.172Z,42.29
2019-03-25T14:05:00.434Z,42.39
2019-03-25T14:07:31.509Z,42.27
2019-03-25T14:10:02.667Z,42.14
2019-03-25T14:12:34.127Z,42.22
2019-03-25T14:15:05.371Z,42.21
2019-03-25T14:17:37.047Z,42.08
2019-03-25T14:20:08.192Z,42.03
2019-03-25T14:22:39.342Z,42.00
2019-03-25T14:25:10.443Z,42.04
2019-03-25T14:27:41.500Z,42.06
2019-03-25T14:30:14.718Z,42.01
2019-03-25T14:32:45.700Z,42.04
2019-03-25T14:35:16.727Z,42.07
2019-03-25T14:37:48.002Z,41.85
2019-03-25T14:40:19.200Z,42.07
2019-03-25T14:42:50.383Z,41.90
2019-03-25T14:45:26.367Z,41.93
2019-03-25T14:47:54.532Z,41.73
2019-03-25T14:50:26.596Z,41.78
2019-03-25T14:52:57.954Z,41.98
2019-03-25T14:55:29.015Z,41.69
2019-03-25T14:58:00.164Z,41.81
2019-03-25T15:00:31.326Z,41.59
2019-03-25T15:03:02.497Z,41.59
2019-03-25T15:05:33.563Z,41.63
2019-03-25T15:08:04.722Z,41.64
2019-03-25T15:10:36.145Z,41.66
2019-03-25T15:13:07.339Z,41.66
2019-03-25T15:15:40.987Z,41.60
2019-03-25T15:18:15.725Z,41.76
2019-03-25T15:20:44.836Z,41.88
2019-03-25T15:23:16.781Z,41.54
2019-03-25T15:25:47.631Z,41.38
2019-03-25T15:28:18.504Z,41.38
2019-03-25T15:30:49.302Z,40.97
2019-03-25T15:33:20.209Z,39.70
2019-03-25T15:35:53.336Z,40.26
2019-03-25T15:38:25.513Z,40.37
2019-03-25T15:40:56.639Z,40.54
2019-03-25T15:43:27.463Z,40.55
2019-03-25T15:45:58.354Z,40.51
2019-03-25T15:48:29.157Z,40.54
2019-03-25T15:51:00.047Z,40.59
2019-03-25T15:53:28.953Z,40.60
2019-03-25T15:56:00.766Z,40.56
2019-03-25T15:58:31.598Z,40.58
2019-03-25T16:01:02.424Z,40.72
2019-03-25T16:03:33.242Z,40.58
2019-03-25T16:06:04.395Z,40.57
2019-03-25T16:08:35.380Z,40.59
2019-03-25T16:11:06.241Z,40.69
2019-03-25T16:13:38.234Z,40.68
2019-03-25T16:16:09.156Z,40.66
2019-03-25T16:18:41.039Z,40.65
2019-03-25T16:21:11.893Z,40.80
2019-03-25T16:23:42.761Z,40.67
2019-03-25T16:26:13.631Z,40.65
2019-03-25T16:28:44.459Z,40.63
2019-03-25T16:31:15.269Z,40.59
2019-03-25T16:33:46.144Z,40.47
2019-03-25T16:36:16.964Z,40.25
2019-03-25T16:38:47.802Z,40.36
2019-03-25T16:41:18.695Z,39.41
2019-03-25T16:43:49.549Z,38.61
2019-03-25T16:46:20.616Z,38.17
2019-03-25T16:48:51.512Z,38.73
2019-03-25T16:51:22.450Z,38.66
2019-03-25T16:53:56.015Z,39.33
2019-03-25T16:56:26.780Z,39.25
2019-03-25T16:58:57.688Z,39.33
2019-03-25T17:01:28.568Z,39.22
2019-03-25T17:03:59.545Z,39.36
2019-03-25T17:06:30.879Z,39.33
2019-03-25T17:09:01.767Z,39.17
2019-03-25T17:11:33.117Z,39.17
2019-03-25T17:14:04.086Z,39.11
2019-03-25T17:16:35.008Z,36.65
2019-03-25T17:19:05.872Z,30.07
2019-03-25T17:21:36.722Z,31.93
2019-03-25T17:24:07.610Z,34.69
2019-03-25T17:26:42.613Z,35.12
2019-03-25T17:29:11.061Z,36.46
2019-03-25T17:31:41.921Z,36.94
2019-03-25T17:34:12.782Z,36.95
2019-03-25T17:36:43.982Z,37.97
2019-03-25T17:39:14.794Z,38.29
2019-03-25T17:41:46.162Z,38.63
2019-03-25T17:44:16.979Z,38.60
2019-03-25T17:46:47.797Z,38.71
2019-03-25T17:49:18.764Z,38.75
2019-03-25T17:51:49.653Z,38.76
2019-03-25T17:54:20.525Z,38.71
2019-03-25T17:56:53.463Z,38.59
2019-03-25T17:59:24.280Z,38.58
2019-03-25T18:01:55.152Z,38.70
2019-03-25T18:04:26.009Z,38.66
2019-03-25T18:06:57.067Z,38.63
2019-03-25T18:09:27.935Z,38.68
2019-03-25T18:11:58.819Z,38.81
2019-03-25T18:14:31.258Z,38.77
2019-03-25T18:17:02.150Z,38.72
2019-03-25T18:19:33.015Z,38.81
2019-03-25T18:22:03.843Z,38.72
2019-03-25T18:24:34.773Z,38.70
2019-03-25T18:27:05.669Z,38.69
2019-03-25T18:29:38.911Z,38.83
2019-03-25T18:32:09.833Z,38.90
2019-03-25T18:34:40.626Z,38.87
2019-03-25T18:37:11.469Z,38.78
2019-03-25T18:39:42.284Z,38.86
2019-03-25T18:42:13.181Z,38.96
2019-03-25T18:44:44.039Z,39.06
2019-03-25T18:47:14.971Z,39.05
2019-03-25T18:49:47.466Z,39.04
2019-03-25T18:52:18.418Z,39.06
2019-03-25T18:54:49.199Z,39.12
2019-03-25T18:57:20.058Z,39.14
2019-03-25T18:59:50.864Z,39.03
2019-03-25T19:02:21.650Z,39.06
2019-03-25T19:04:52.789Z,39.10
2019-03-25T19:07:25.698Z,39.14
2019-03-25T19:09:56.511Z,39.13
2019-03-25T19:12:27.454Z,39.12
2019-03-25T19:14:59.608Z,39.11
2019-03-25T19:17:30.251Z,39.11
2019-03-25T19:20:02.156Z,39.10
2019-03-25T19:22:33.396Z,39.11
2019-03-25T19:25:04.299Z,39.00
2019-03-25T19:27:38.111Z,39.05
2019-03-25T19:30:10.137Z,38.98
2019-03-25T19:32:43.297Z,38.98
2019-03-25T19:35:14.321Z,39.03
2019-03-25T19:37:45.141Z,38.98
2019-03-25T19:40:15.905Z,38.89
2019-03-25T19:42:46.764Z,38.80
2019-03-25T19:45:17.939Z,38.71
2019-03-25T19:47:49.041Z,38.61
2019-03-25T19:50:19.974Z,38.75
2019-03-25T19:52:50.877Z,38.83
2019-03-25T19:55:21.815Z,38.68
2019-03-25T19:57:52.748Z,38.62
2019-03-25T20:00:38.403Z,38.44
2019-03-25T20:03:10.918Z,38.43
2019-03-25T20:05:41.891Z,38.49
2019-03-25T20:08:12.762Z,38.39
2019-03-25T20:10:43.601Z,38.30
2019-03-25T20:13:14.521Z,38.27
2019-03-25T20:15:46.825Z,38.28
2019-03-25T20:18:18.054Z,38.27
2019-03-25T20:20:48.894Z,38.20
2019-03-25T20:23:19.830Z,38.20
2019-03-25T20:25:51.127Z,38.26
2019-03-25T20:28:23.191Z,38.26
2019-03-25T20:30:55.230Z,38.29
2019-03-25T20:33:26.110Z,38.26
2019-03-25T20:35:57.008Z,38.27
2019-03-25T20:38:28.211Z,38.20
2019-03-25T20:40:59.164Z,38.23
2019-03-25T20:43:30.130Z,38.20
2019-03-25T20:46:01.026Z,38.21
2019-03-25T20:48:31.946Z,38.21
2019-03-25T20:51:02.844Z,38.17
2019-03-25T20:53:33.886Z,38.21
2019-03-25T20:56:04.909Z,38.12
2019-03-25T20:58:35.899Z,38.14
2019-03-25T21:01:06.805Z,38.17
2019-03-25T21:03:37.814Z,38.13
2019-03-25T21:06:08.709Z,38.19
2019-03-25T21:08:39.669Z,38.18
2019-03-25T21:11:10.672Z,38.21
2019-03-25T21:13:42.583Z,38.45
2019-03-25T21:16:13.751Z,38.48
2019-03-25T21:18:44.789Z,38.47
2019-03-25T21:21:15.786Z,38.59
2019-03-25T21:23:46.764Z,38.56
2019-03-25T21:26:17.517Z,38.55
2019-03-25T21:28:47.352Z,38.36
2019-03-25T21:31:17.111Z,38.38
2019-03-25T21:33:48.203Z,38.46
2019-03-25T21:36:19.083Z,38.39
2019-03-25T21:38:49.855Z,38.66
2019-03-25T21:41:20.650Z,38.96
2019-03-25T21:43:51.503Z,38.83
2019-03-25T21:46:22.401Z,39.36
2019-03-25T21:48:53.352Z,39.43
2019-03-25T21:51:24.317Z,39.75
2019-03-25T21:53:55.212Z,39.89
2019-03-25T21:56:26.080Z,40.05
2019-03-25T21:58:56.960Z,40.39
2019-03-25T22:01:27.798Z,40.57
2019-03-25T22:03:58.666Z,40.65
2019-03-25T22:06:29.740Z,40.94
2019-03-25T22:09:01.647Z,40.92
2019-03-25T22:11:32.956Z,40.89
2019-03-25T22:14:03.738Z,40.86
2019-03-25T22:16:34.629Z,41.04
2019-03-25T22:19:05.498Z,40.89
2019-03-25T22:21:36.371Z,40.96
2019-03-25T22:24:09.514Z,40.84
2019-03-25T22:26:40.379Z,40.78
2019-03-25T22:29:13.571Z,40.71
2019-03-25T22:31:44.436Z,40.72
2019-03-25T22:34:15.357Z,40.77
2019-03-25T22:36:46.223Z,40.74
2019-03-25T22:39:16.995Z,40.75
2019-03-25T22:41:47.851Z,40.73
2019-03-25T22:44:18.957Z,40.73
2019-03-25T22:46:49.844Z,40.68
2019-03-25T22:49:20.767Z,40.69
2019-03-25T22:51:51.534Z,40.67
2019-03-25T22:54:22.385Z,40.75
2019-03-25T22:56:53.130Z,40.70
2019-03-25T22:59:24.014Z,40.60
2019-03-25T23:01:54.754Z,40.71
2019-03-25T23:04:25.594Z,40.64
2019-03-25T23:06:56.406Z,40.58
2019-03-25T23:09:27.211Z,40.66
2019-03-25T23:11:59.685Z,40.60
2019-03-25T23:14:31.749Z,40.55
2019-03-25T23:17:02.556Z,40.52
2019-03-25T23:19:38.506Z,40.54
2019-03-25T23:22:09.138Z,40.45
2019-03-25T23:24:39.899Z,40.42
2019-03-25T23:27:10.672Z,40.42
2019-03-25T23:29:41.538Z,40.42
2019-03-25T23:32:12.392Z,40.42
2019-03-25T23:34:43.510Z,40.47
2019-03-25T23:37:14.566Z,40.35
2019-03-25T23:39:45.429Z,40.26
2019-03-25T23:42:17.880Z,40.43
2019-03-25T23:44:48.796Z,40.39
2019-03-25T23:47:19.532Z,40.43
2019-03-25T23:49:50.392Z,40.36
2019-03-25T23:52:23.457Z,40.34
2019-03-25T23:54:54.267Z,40.36
2019-03-25T23:57:25.108Z,40.42
2019-03-25T23:59:56.182Z,40.46
